sensor_id;sensor_type;location;lat;lon;timestamp;P1;durP1;ratioP1;P2;durP2;ratioP2
69532;SDS011;56729;52.036;5.332;2022-11-15T00:00:41;16.17;;;6.32;;
69532;SDS011;56729;52.036;5.332;2022-11-15T00:02:01;9.40;;;6.10;;
69532;SDS011;56729;52.036;5.332;2022-11-15T00:03:25;10.23;;;5.60;;
69532;SDS011;56729;52.036;5.332;2022-11-15T00:04:47;10.90;;;5.97;;
69532;SDS011;56729;52.036;5.332;2022-11-15T00:06:08;8.07;;;5.20;;
69532;SDS011;56729;52.036;5.332;2022-11-15T00:07:29;20.20;;;7.15;;
69532;SDS011;56729;52.036;5.332;2022-11-15T00:09:09;7.70;;;5.18;;
69532;SDS011;56729;52.036;5.332;2022-11-15T00:10:30;10.40;;;5.80;;
69532;SDS011;56729;52.036;5.332;2022-11-15T00:11:51;10.73;;;7.03;;
69532;SDS011;56729;52.036;5.332;2022-11-15T00:13:12;12.68;;;6.53;;
69532;SDS011;56729;52.036;5.332;2022-11-15T00:14:32;10.60;;;5.82;;
69532;SDS011;56729;52.036;5.332;2022-11-15T00:15:56;10.23;;;6.20;;
69532;SDS011;56729;52.036;5.332;2022-11-15T00:17:16;14.00;;;8.02;;
69532;SDS011;56729;52.036;5.332;2022-11-15T00:18:37;8.98;;;6.30;;
69532;SDS011;56729;52.036;5.332;2022-11-15T00:19:58;9.23;;;5.50;;
69532;SDS011;56729;52.036;5.332;2022-11-15T00:21:18;18.00;;;8.43;;
69532;SDS011;56729;52.036;5.332;2022-11-15T00:22:38;9.77;;;6.13;;
69532;SDS011;56729;52.036;5.332;2022-11-15T00:23:59;14.60;;;8.00;;
69532;SDS011;56729;52.036;5.332;2022-11-15T00:25:20;14.10;;;7.25;;
69532;SDS011;56729;52.036;5.332;2022-11-15T00:26:41;13.55;;;6.53;;
69532;SDS011;56729;52.036;5.332;2022-11-15T00:28:01;16.07;;;6.37;;
69532;SDS011;56729;52.036;5.332;2022-11-15T00:29:23;13.85;;;6.60;;
69532;SDS011;56729;52.036;5.332;2022-11-15T00:30:44;10.35;;;6.82;;
69532;SDS011;56729;52.036;5.332;2022-11-15T00:32:05;8.73;;;6.30;;
69532;SDS011;56729;52.036;5.332;2022-11-15T00:33:25;10.35;;;6.03;;
69532;SDS011;56729;52.036;5.332;2022-11-15T00:34:45;13.60;;;5.97;;
69532;SDS011;56729;52.036;5.332;2022-11-15T00:36:09;14.70;;;7.65;;
69532;SDS011;56729;52.036;5.332;2022-11-15T00:37:30;10.35;;;7.03;;
69532;SDS011;56729;52.036;5.332;2022-11-15T00:38:51;11.85;;;6.65;;
69532;SDS011;56729;52.036;5.332;2022-11-15T00:40:11;10.73;;;5.05;;
69532;SDS011;56729;52.036;5.332;2022-11-15T00:41:32;7.45;;;5.45;;
69532;SDS011;56729;52.036;5.332;2022-11-15T00:42:53;13.27;;;6.80;;
69532;SDS011;56729;52.036;5.332;2022-11-15T00:44:14;16.25;;;6.68;;
69532;SDS011;56729;52.036;5.332;2022-11-15T00:45:34;15.75;;;6.30;;
69532;SDS011;56729;52.036;5.332;2022-11-15T00:46:55;13.85;;;6.68;;
69532;SDS011;56729;52.036;5.332;2022-11-15T00:48:15;13.63;;;6.40;;
69532;SDS011;56729;52.036;5.332;2022-11-15T00:49:36;14.35;;;6.22;;
69532;SDS011;56729;52.036;5.332;2022-11-15T00:50:56;10.70;;;5.77;;
69532;SDS011;56729;52.036;5.332;2022-11-15T00:52:16;9.98;;;4.95;;
69532;SDS011;56729;52.036;5.332;2022-11-15T00:53:38;12.43;;;6.97;;
69532;SDS011;56729;52.036;5.332;2022-11-15T00:54:59;13.88;;;7.40;;
69532;SDS011;56729;52.036;5.332;2022-11-15T00:56:20;16.00;;;7.75;;
69532;SDS011;56729;52.036;5.332;2022-11-15T00:57:40;9.88;;;6.70;;
69532;SDS011;56729;52.036;5.332;2022-11-15T00:59:00;8.47;;;5.30;;
69532;SDS011;56729;52.036;5.332;2022-11-15T01:00:21;13.82;;;5.95;;
69532;SDS011;56729;52.036;5.332;2022-11-15T01:01:41;11.85;;;5.43;;
69532;SDS011;56729;52.036;5.332;2022-11-15T01:03:02;11.95;;;6.38;;
69532;SDS011;56729;52.036;5.332;2022-11-15T01:04:22;12.15;;;6.40;;
69532;SDS011;56729;52.036;5.332;2022-11-15T01:05:43;13.90;;;7.00;;
69532;SDS011;56729;52.036;5.332;2022-11-15T01:07:04;12.63;;;6.10;;
69532;SDS011;56729;52.036;5.332;2022-11-15T01:08:25;14.68;;;6.70;;
69532;SDS011;56729;52.036;5.332;2022-11-15T01:09:45;10.60;;;4.80;;
69532;SDS011;56729;52.036;5.332;2022-11-15T01:11:07;11.13;;;5.75;;
69532;SDS011;56729;52.036;5.332;2022-11-15T01:12:30;13.18;;;6.47;;
69532;SDS011;56729;52.036;5.332;2022-11-15T01:13:51;10.95;;;6.60;;
69532;SDS011;56729;52.036;5.332;2022-11-15T01:15:11;8.37;;;4.53;;
69532;SDS011;56729;52.036;5.332;2022-11-15T01:16:32;14.40;;;7.22;;
69532;SDS011;56729;52.036;5.332;2022-11-15T01:17:53;14.15;;;7.43;;
69532;SDS011;56729;52.036;5.332;2022-11-15T01:19:14;12.65;;;4.65;;
69532;SDS011;56729;52.036;5.332;2022-11-15T01:20:38;7.72;;;5.43;;
69532;SDS011;56729;52.036;5.332;2022-11-15T01:22:02;9.80;;;5.95;;
69532;SDS011;56729;52.036;5.332;2022-11-15T01:23:23;7.00;;;5.87;;
69532;SDS011;56729;52.036;5.332;2022-11-15T01:24:43;10.70;;;6.95;;
69532;SDS011;56729;52.036;5.332;2022-11-15T01:26:05;9.55;;;6.85;;
69532;SDS011;56729;52.036;5.332;2022-11-15T01:27:27;12.07;;;4.75;;
69532;SDS011;56729;52.036;5.332;2022-11-15T01:28:47;10.18;;;6.55;;
69532;SDS011;56729;52.036;5.332;2022-11-15T01:30:08;12.13;;;6.72;;
69532;SDS011;56729;52.036;5.332;2022-11-15T01:31:29;27.70;;;5.77;;
69532;SDS011;56729;52.036;5.332;2022-11-15T01:32:49;7.25;;;4.28;;
69532;SDS011;56729;52.036;5.332;2022-11-15T01:34:09;8.20;;;5.68;;
69532;SDS011;56729;52.036;5.332;2022-11-15T01:35:30;15.15;;;7.03;;
69532;SDS011;56729;52.036;5.332;2022-11-15T01:36:50;10.35;;;5.85;;
69532;SDS011;56729;52.036;5.332;2022-11-15T01:38:11;11.23;;;5.78;;
69532;SDS011;56729;52.036;5.332;2022-11-15T01:39:31;12.33;;;6.43;;
69532;SDS011;56729;52.036;5.332;2022-11-15T01:40:51;15.95;;;7.03;;
69532;SDS011;56729;52.036;5.332;2022-11-15T01:42:12;13.05;;;5.43;;
69532;SDS011;56729;52.036;5.332;2022-11-15T01:43:34;10.35;;;5.30;;
69532;SDS011;56729;52.036;5.332;2022-11-15T01:44:56;9.88;;;6.88;;
69532;SDS011;56729;52.036;5.332;2022-11-15T01:47:42;10.93;;;5.87;;
69532;SDS011;56729;52.036;5.332;2022-11-15T01:49:11;16.05;;;5.70;;
69532;SDS011;56729;52.036;5.332;2022-11-15T01:50:34;11.05;;;5.72;;
69532;SDS011;56729;52.036;5.332;2022-11-15T01:51:54;13.57;;;6.18;;
69532;SDS011;56729;52.036;5.332;2022-11-15T01:53:16;13.20;;;6.05;;
69532;SDS011;56729;52.036;5.332;2022-11-15T01:54:39;9.80;;;4.82;;
69532;SDS011;56729;52.036;5.332;2022-11-15T01:56:01;13.27;;;6.43;;
69532;SDS011;56729;52.036;5.332;2022-11-15T01:57:23;8.43;;;4.45;;
69532;SDS011;56729;52.036;5.332;2022-11-15T01:58:44;14.27;;;5.30;;
69532;SDS011;56729;52.036;5.332;2022-11-15T02:00:06;14.30;;;7.65;;
69532;SDS011;56729;52.036;5.332;2022-11-15T02:01:27;12.20;;;5.82;;
69532;SDS011;56729;52.036;5.332;2022-11-15T02:02:50;10.32;;;5.20;;
69532;SDS011;56729;52.036;5.332;2022-11-15T02:04:15;13.27;;;6.40;;
69532;SDS011;56729;52.036;5.332;2022-11-15T02:05:40;11.10;;;5.07;;
69532;SDS011;56729;52.036;5.332;2022-11-15T02:07:04;10.02;;;5.00;;
69532;SDS011;56729;52.036;5.332;2022-11-15T02:08:28;8.00;;;5.18;;
69532;SDS011;56729;52.036;5.332;2022-11-15T02:09:48;13.13;;;5.97;;
69532;SDS011;56729;52.036;5.332;2022-11-15T02:11:09;10.60;;;6.22;;
69532;SDS011;56729;52.036;5.332;2022-11-15T02:12:29;10.50;;;4.57;;
69532;SDS011;56729;52.036;5.332;2022-11-15T02:13:51;17.30;;;5.38;;
69532;SDS011;56729;52.036;5.332;2022-11-15T02:15:12;11.18;;;5.63;;
69532;SDS011;56729;52.036;5.332;2022-11-15T02:18:31;11.35;;;5.80;;
69532;SDS011;56729;52.036;5.332;2022-11-15T02:21:37;13.03;;;6.43;;
69532;SDS011;56729;52.036;5.332;2022-11-15T02:26:28;11.88;;;5.97;;
69532;SDS011;56729;52.036;5.332;2022-11-15T02:29:48;12.40;;;6.28;;
69532;SDS011;56729;52.036;5.332;2022-11-15T02:31:35;10.37;;;5.83;;
69532;SDS011;56729;52.036;5.332;2022-11-15T02:33:26;9.80;;;4.90;;
69532;SDS011;56729;52.036;5.332;2022-11-15T02:34:54;7.40;;;5.25;;
69532;SDS011;56729;52.036;5.332;2022-11-15T02:36:22;9.02;;;5.60;;
69532;SDS011;56729;52.036;5.332;2022-11-15T02:43:19;8.30;;;5.63;;
69532;SDS011;56729;52.036;5.332;2022-11-15T02:45:06;8.80;;;4.63;;
69532;SDS011;56729;52.036;5.332;2022-11-15T02:46:37;10.70;;;5.35;;
69532;SDS011;56729;52.036;5.332;2022-11-15T02:48:29;10.05;;;5.03;;
69532;SDS011;56729;52.036;5.332;2022-11-15T02:49:52;14.90;;;6.20;;
69532;SDS011;56729;52.036;5.332;2022-11-15T02:51:14;8.97;;;6.40;;
69532;SDS011;56729;52.036;5.332;2022-11-15T02:52:36;7.38;;;6.03;;
69532;SDS011;56729;52.036;5.332;2022-11-15T02:53:56;10.15;;;6.53;;
69532;SDS011;56729;52.036;5.332;2022-11-15T02:55:30;11.93;;;5.45;;
69532;SDS011;56729;52.036;5.332;2022-11-15T02:56:56;8.48;;;4.55;;
69532;SDS011;56729;52.036;5.332;2022-11-15T02:58:35;7.70;;;5.22;;
69532;SDS011;56729;52.036;5.332;2022-11-15T03:00:04;10.53;;;4.80;;
69532;SDS011;56729;52.036;5.332;2022-11-15T03:01:41;9.27;;;3.90;;
69532;SDS011;56729;52.036;5.332;2022-11-15T03:07:14;7.63;;;4.40;;
69532;SDS011;56729;52.036;5.332;2022-11-15T03:10:42;7.83;;;4.23;;
69532;SDS011;56729;52.036;5.332;2022-11-15T03:15:37;8.00;;;4.47;;
69532;SDS011;56729;52.036;5.332;2022-11-15T03:18:38;7.43;;;4.30;;
69532;SDS011;56729;52.036;5.332;2022-11-15T03:20:04;8.65;;;5.60;;
69532;SDS011;56729;52.036;5.332;2022-11-15T03:21:27;7.43;;;4.75;;
69532;SDS011;56729;52.036;5.332;2022-11-15T03:22:49;6.32;;;4.30;;
69532;SDS011;56729;52.036;5.332;2022-11-15T03:24:12;7.65;;;5.35;;
69532;SDS011;56729;52.036;5.332;2022-11-15T03:25:45;6.55;;;5.15;;
69532;SDS011;56729;52.036;5.332;2022-11-15T03:27:08;6.68;;;3.75;;
69532;SDS011;56729;52.036;5.332;2022-11-15T03:28:40;5.87;;;3.23;;
69532;SDS011;56729;52.036;5.332;2022-11-15T03:30:06;9.57;;;5.65;;
69532;SDS011;56729;52.036;5.332;2022-11-15T03:31:28;6.32;;;4.65;;
69532;SDS011;56729;52.036;5.332;2022-11-15T03:33:09;6.93;;;4.13;;
69532;SDS011;56729;52.036;5.332;2022-11-15T03:36:01;8.40;;;5.00;;
69532;SDS011;56729;52.036;5.332;2022-11-15T03:37:22;6.78;;;4.18;;
69532;SDS011;56729;52.036;5.332;2022-11-15T03:38:47;8.03;;;4.10;;
69532;SDS011;56729;52.036;5.332;2022-11-15T03:40:08;5.93;;;4.10;;
69532;SDS011;56729;52.036;5.332;2022-11-15T03:43:14;6.50;;;4.43;;
69532;SDS011;56729;52.036;5.332;2022-11-15T03:46:39;7.40;;;3.83;;
69532;SDS011;56729;52.036;5.332;2022-11-15T03:48:27;10.80;;;6.18;;
69532;SDS011;56729;52.036;5.332;2022-11-15T03:49:51;6.37;;;4.20;;
69532;SDS011;56729;52.036;5.332;2022-11-15T03:51:17;5.93;;;4.25;;
69532;SDS011;56729;52.036;5.332;2022-11-15T03:52:38;8.50;;;4.88;;
69532;SDS011;56729;52.036;5.332;2022-11-15T03:54:02;6.38;;;4.03;;
69532;SDS011;56729;52.036;5.332;2022-11-15T03:55:26;15.80;;;4.57;;
69532;SDS011;56729;52.036;5.332;2022-11-15T03:56:46;8.73;;;4.55;;
69532;SDS011;56729;52.036;5.332;2022-11-15T03:58:07;7.77;;;4.07;;
69532;SDS011;56729;52.036;5.332;2022-11-15T03:59:28;7.75;;;4.47;;
69532;SDS011;56729;52.036;5.332;2022-11-15T04:00:49;6.25;;;3.35;;
69532;SDS011;56729;52.036;5.332;2022-11-15T04:02:11;7.00;;;3.85;;
69532;SDS011;56729;52.036;5.332;2022-11-15T04:03:33;4.30;;;3.33;;
69532;SDS011;56729;52.036;5.332;2022-11-15T04:04:53;5.10;;;3.50;;
69532;SDS011;56729;52.036;5.332;2022-11-15T04:06:14;18.75;;;3.60;;
69532;SDS011;56729;52.036;5.332;2022-11-15T04:07:34;5.38;;;3.33;;
69532;SDS011;56729;52.036;5.332;2022-11-15T04:08:55;6.05;;;3.13;;
69532;SDS011;56729;52.036;5.332;2022-11-15T04:10:15;11.95;;;4.75;;
69532;SDS011;56729;52.036;5.332;2022-11-15T04:11:36;5.47;;;3.67;;
69532;SDS011;56729;52.036;5.332;2022-11-15T04:12:56;5.60;;;4.63;;
69532;SDS011;56729;52.036;5.332;2022-11-15T04:14:17;6.38;;;3.53;;
69532;SDS011;56729;52.036;5.332;2022-11-15T04:15:37;7.90;;;4.70;;
69532;SDS011;56729;52.036;5.332;2022-11-15T04:16:57;8.07;;;3.47;;
69532;SDS011;56729;52.036;5.332;2022-11-15T04:18:18;6.85;;;4.45;;
69532;SDS011;56729;52.036;5.332;2022-11-15T04:19:38;7.93;;;5.20;;
69532;SDS011;56729;52.036;5.332;2022-11-15T04:21:18;6.55;;;4.35;;
69532;SDS011;56729;52.036;5.332;2022-11-15T04:22:57;7.07;;;4.85;;
69532;SDS011;56729;52.036;5.332;2022-11-15T04:24:38;11.57;;;5.60;;
69532;SDS011;56729;52.036;5.332;2022-11-15T04:25:59;6.63;;;3.97;;
69532;SDS011;56729;52.036;5.332;2022-11-15T04:27:22;8.27;;;4.38;;
69532;SDS011;56729;52.036;5.332;2022-11-15T04:28:43;8.77;;;4.60;;
69532;SDS011;56729;52.036;5.332;2022-11-15T04:30:22;8.05;;;5.07;;
69532;SDS011;56729;52.036;5.332;2022-11-15T04:31:42;6.95;;;4.10;;
69532;SDS011;56729;52.036;5.332;2022-11-15T04:33:03;5.60;;;2.77;;
69532;SDS011;56729;52.036;5.332;2022-11-15T04:34:24;5.03;;;3.72;;
69532;SDS011;56729;52.036;5.332;2022-11-15T04:35:44;4.95;;;2.85;;
69532;SDS011;56729;52.036;5.332;2022-11-15T04:37:24;11.00;;;4.88;;
69532;SDS011;56729;52.036;5.332;2022-11-15T04:38:45;8.52;;;4.85;;
69532;SDS011;56729;52.036;5.332;2022-11-15T04:40:05;5.68;;;2.72;;
69532;SDS011;56729;52.036;5.332;2022-11-15T04:41:26;5.55;;;3.45;;
69532;SDS011;56729;52.036;5.332;2022-11-15T04:42:49;8.90;;;4.45;;
69532;SDS011;56729;52.036;5.332;2022-11-15T04:44:09;9.90;;;5.63;;
69532;SDS011;56729;52.036;5.332;2022-11-15T04:45:29;5.97;;;4.57;;
69532;SDS011;56729;52.036;5.332;2022-11-15T04:46:50;7.50;;;4.75;;
69532;SDS011;56729;52.036;5.332;2022-11-15T04:48:10;7.00;;;3.58;;
69532;SDS011;56729;52.036;5.332;2022-11-15T04:49:30;5.55;;;3.75;;
69532;SDS011;56729;52.036;5.332;2022-11-15T04:50:51;15.52;;;3.75;;
69532;SDS011;56729;52.036;5.332;2022-11-15T04:52:11;7.60;;;3.92;;
69532;SDS011;56729;52.036;5.332;2022-11-15T04:53:32;8.77;;;5.53;;
69532;SDS011;56729;52.036;5.332;2022-11-15T04:54:53;6.82;;;4.45;;
69532;SDS011;56729;52.036;5.332;2022-11-15T04:56:13;6.78;;;3.72;;
69532;SDS011;56729;52.036;5.332;2022-11-15T04:57:33;4.47;;;3.22;;
69532;SDS011;56729;52.036;5.332;2022-11-15T04:58:54;5.25;;;3.33;;
69532;SDS011;56729;52.036;5.332;2022-11-15T05:00:15;6.53;;;4.07;;
69532;SDS011;56729;52.036;5.332;2022-11-15T05:01:37;7.60;;;4.03;;
69532;SDS011;56729;52.036;5.332;2022-11-15T05:03:03;5.95;;;3.60;;
69532;SDS011;56729;52.036;5.332;2022-11-15T05:04:42;5.68;;;3.17;;
69532;SDS011;56729;52.036;5.332;2022-11-15T05:06:02;6.18;;;4.03;;
69532;SDS011;56729;52.036;5.332;2022-11-15T05:07:23;6.03;;;3.20;;
69532;SDS011;56729;52.036;5.332;2022-11-15T05:08:43;9.13;;;4.13;;
69532;SDS011;56729;52.036;5.332;2022-11-15T05:10:04;7.13;;;3.67;;
69532;SDS011;56729;52.036;5.332;2022-11-15T05:11:24;6.70;;;3.63;;
69532;SDS011;56729;52.036;5.332;2022-11-15T05:12:46;6.55;;;3.00;;
69532;SDS011;56729;52.036;5.332;2022-11-15T05:14:06;4.18;;;2.97;;
69532;SDS011;56729;52.036;5.332;2022-11-15T05:15:27;7.28;;;3.45;;
69532;SDS011;56729;52.036;5.332;2022-11-15T05:16:47;5.47;;;2.97;;
69532;SDS011;56729;52.036;5.332;2022-11-15T05:18:08;4.45;;;3.42;;
69532;SDS011;56729;52.036;5.332;2022-11-15T05:19:28;10.18;;;5.05;;
69532;SDS011;56729;52.036;5.332;2022-11-15T05:20:49;5.53;;;3.47;;
69532;SDS011;56729;52.036;5.332;2022-11-15T05:22:09;5.97;;;3.80;;
69532;SDS011;56729;52.036;5.332;2022-11-15T05:23:30;6.25;;;3.90;;
69532;SDS011;56729;52.036;5.332;2022-11-15T05:24:51;6.78;;;3.97;;
69532;SDS011;56729;52.036;5.332;2022-11-15T05:26:12;9.25;;;3.65;;
69532;SDS011;56729;52.036;5.332;2022-11-15T05:27:34;5.25;;;3.05;;
69532;SDS011;56729;52.036;5.332;2022-11-15T05:28:55;6.45;;;4.57;;
69532;SDS011;56729;52.036;5.332;2022-11-15T05:30:17;5.32;;;2.97;;
69532;SDS011;56729;52.036;5.332;2022-11-15T05:31:39;5.80;;;3.00;;
69532;SDS011;56729;52.036;5.332;2022-11-15T05:33:01;4.35;;;3.15;;
69532;SDS011;56729;52.036;5.332;2022-11-15T05:34:21;6.68;;;3.58;;
69532;SDS011;56729;52.036;5.332;2022-11-15T05:35:43;5.47;;;4.00;;
69532;SDS011;56729;52.036;5.332;2022-11-15T05:37:08;6.82;;;4.15;;
69532;SDS011;56729;52.036;5.332;2022-11-15T05:38:29;5.22;;;3.47;;
69532;SDS011;56729;52.036;5.332;2022-11-15T05:39:50;10.10;;;4.68;;
69532;SDS011;56729;52.036;5.332;2022-11-15T05:41:10;5.93;;;3.60;;
69532;SDS011;56729;52.036;5.332;2022-11-15T05:42:32;7.20;;;3.47;;
69532;SDS011;56729;52.036;5.332;2022-11-15T05:43:53;5.55;;;3.25;;
69532;SDS011;56729;52.036;5.332;2022-11-15T05:45:13;7.30;;;4.00;;
69532;SDS011;56729;52.036;5.332;2022-11-15T05:46:34;6.30;;;2.97;;
69532;SDS011;56729;52.036;5.332;2022-11-15T05:47:57;4.65;;;3.33;;
69532;SDS011;56729;52.036;5.332;2022-11-15T05:49:21;5.32;;;3.20;;
69532;SDS011;56729;52.036;5.332;2022-11-15T05:50:45;8.70;;;5.05;;
69532;SDS011;56729;52.036;5.332;2022-11-15T05:52:07;8.20;;;4.68;;
69532;SDS011;56729;52.036;5.332;2022-11-15T05:53:30;4.57;;;2.63;;
69532;SDS011;56729;52.036;5.332;2022-11-15T05:54:51;5.05;;;3.58;;
69532;SDS011;56729;52.036;5.332;2022-11-15T05:56:13;7.07;;;3.92;;
69532;SDS011;56729;52.036;5.332;2022-11-15T05:57:34;4.93;;;2.92;;
69532;SDS011;56729;52.036;5.332;2022-11-15T05:58:54;6.28;;;4.47;;
69532;SDS011;56729;52.036;5.332;2022-11-15T06:00:18;7.63;;;3.22;;
69532;SDS011;56729;52.036;5.332;2022-11-15T06:01:39;5.25;;;2.75;;
69532;SDS011;56729;52.036;5.332;2022-11-15T06:03:00;7.43;;;4.13;;
69532;SDS011;56729;52.036;5.332;2022-11-15T06:04:20;9.47;;;4.47;;
69532;SDS011;56729;52.036;5.332;2022-11-15T06:05:40;6.05;;;3.45;;
69532;SDS011;56729;52.036;5.332;2022-11-15T06:07:01;6.72;;;4.00;;
69532;SDS011;56729;52.036;5.332;2022-11-15T06:08:22;5.63;;;3.72;;
69532;SDS011;56729;52.036;5.332;2022-11-15T06:09:42;7.13;;;4.78;;
69532;SDS011;56729;52.036;5.332;2022-11-15T06:11:03;7.32;;;4.35;;
69532;SDS011;56729;52.036;5.332;2022-11-15T06:12:25;6.63;;;3.97;;
69532;SDS011;56729;52.036;5.332;2022-11-15T06:13:45;5.22;;;2.55;;
69532;SDS011;56729;52.036;5.332;2022-11-15T06:15:06;6.32;;;3.92;;
69532;SDS011;56729;52.036;5.332;2022-11-15T06:16:27;6.07;;;3.70;;
69532;SDS011;56729;52.036;5.332;2022-11-15T06:17:48;21.95;;;4.50;;
69532;SDS011;56729;52.036;5.332;2022-11-15T06:19:09;4.72;;;3.28;;
69532;SDS011;56729;52.036;5.332;2022-11-15T06:20:29;4.45;;;2.60;;
69532;SDS011;56729;52.036;5.332;2022-11-15T06:21:50;8.00;;;4.18;;
69532;SDS011;56729;52.036;5.332;2022-11-15T06:23:10;6.35;;;4.80;;
69532;SDS011;56729;52.036;5.332;2022-11-15T06:24:31;8.98;;;4.20;;
69532;SDS011;56729;52.036;5.332;2022-11-15T06:25:52;5.95;;;3.08;;
69532;SDS011;56729;52.036;5.332;2022-11-15T06:27:12;10.05;;;4.22;;
69532;SDS011;56729;52.036;5.332;2022-11-15T06:28:32;7.00;;;4.25;;
69532;SDS011;56729;52.036;5.332;2022-11-15T06:29:53;6.87;;;3.40;;
69532;SDS011;56729;52.036;5.332;2022-11-15T06:31:13;7.07;;;3.00;;
69532;SDS011;56729;52.036;5.332;2022-11-15T06:32:34;4.88;;;2.85;;
69532;SDS011;56729;52.036;5.332;2022-11-15T06:33:54;6.85;;;4.65;;
69532;SDS011;56729;52.036;5.332;2022-11-15T06:35:15;7.05;;;4.25;;
69532;SDS011;56729;52.036;5.332;2022-11-15T06:36:36;7.03;;;3.38;;
69532;SDS011;56729;52.036;5.332;2022-11-15T06:38:01;7.63;;;3.75;;
69532;SDS011;56729;52.036;5.332;2022-11-15T06:39:26;5.90;;;3.28;;
69532;SDS011;56729;52.036;5.332;2022-11-15T06:40:47;5.45;;;3.28;;
69532;SDS011;56729;52.036;5.332;2022-11-15T06:42:07;8.85;;;4.25;;
69532;SDS011;56729;52.036;5.332;2022-11-15T06:43:28;5.87;;;3.40;;
69532;SDS011;56729;52.036;5.332;2022-11-15T06:44:49;7.57;;;4.60;;
69532;SDS011;56729;52.036;5.332;2022-11-15T06:46:09;8.13;;;3.78;;
69532;SDS011;56729;52.036;5.332;2022-11-15T06:47:30;5.60;;;2.60;;
69532;SDS011;56729;52.036;5.332;2022-11-15T06:48:51;5.40;;;3.65;;
69532;SDS011;56729;52.036;5.332;2022-11-15T06:50:12;5.63;;;3.85;;
69532;SDS011;56729;52.036;5.332;2022-11-15T06:51:32;30.38;;;4.97;;
69532;SDS011;56729;52.036;5.332;2022-11-15T06:52:53;4.72;;;2.65;;
69532;SDS011;56729;52.036;5.332;2022-11-15T06:54:14;3.92;;;2.78;;
69532;SDS011;56729;52.036;5.332;2022-11-15T06:55:35;4.97;;;3.05;;
69532;SDS011;56729;52.036;5.332;2022-11-15T06:56:55;7.03;;;2.77;;
69532;SDS011;56729;52.036;5.332;2022-11-15T06:58:16;5.55;;;2.97;;
69532;SDS011;56729;52.036;5.332;2022-11-15T06:59:36;10.00;;;4.38;;
69532;SDS011;56729;52.036;5.332;2022-11-15T07:01:03;4.03;;;2.67;;
69532;SDS011;56729;52.036;5.332;2022-11-15T07:02:26;8.52;;;4.30;;
69532;SDS011;56729;52.036;5.332;2022-11-15T07:03:46;5.25;;;3.15;;
69532;SDS011;56729;52.036;5.332;2022-11-15T07:05:07;7.05;;;2.70;;
69532;SDS011;56729;52.036;5.332;2022-11-15T07:06:27;8.07;;;3.38;;
69532;SDS011;56729;52.036;5.332;2022-11-15T07:07:51;5.70;;;3.20;;
69532;SDS011;56729;52.036;5.332;2022-11-15T07:09:13;6.20;;;3.53;;
69532;SDS011;56729;52.036;5.332;2022-11-15T07:10:34;4.23;;;2.53;;
69532;SDS011;56729;52.036;5.332;2022-11-15T07:11:54;4.70;;;3.45;;
69532;SDS011;56729;52.036;5.332;2022-11-15T07:13:14;3.88;;;2.72;;
69532;SDS011;56729;52.036;5.332;2022-11-15T07:14:34;7.72;;;4.35;;
69532;SDS011;56729;52.036;5.332;2022-11-15T07:15:55;11.50;;;3.45;;
69532;SDS011;56729;52.036;5.332;2022-11-15T07:17:16;6.55;;;3.30;;
69532;SDS011;56729;52.036;5.332;2022-11-15T07:18:37;12.35;;;3.95;;
69532;SDS011;56729;52.036;5.332;2022-11-15T07:19:58;8.13;;;3.20;;
69532;SDS011;56729;52.036;5.332;2022-11-15T07:21:22;5.68;;;3.35;;
69532;SDS011;56729;52.036;5.332;2022-11-15T07:22:46;4.80;;;2.53;;
69532;SDS011;56729;52.036;5.332;2022-11-15T07:24:06;4.33;;;2.27;;
69532;SDS011;56729;52.036;5.332;2022-11-15T07:25:27;13.95;;;4.30;;
69532;SDS011;56729;52.036;5.332;2022-11-15T07:26:49;4.30;;;2.97;;
69532;SDS011;56729;52.036;5.332;2022-11-15T07:28:10;5.75;;;4.07;;
69532;SDS011;56729;52.036;5.332;2022-11-15T07:29:30;6.05;;;3.22;;
69532;SDS011;56729;52.036;5.332;2022-11-15T07:30:51;4.60;;;3.78;;
69532;SDS011;56729;52.036;5.332;2022-11-15T07:32:11;4.53;;;3.30;;
69532;SDS011;56729;52.036;5.332;2022-11-15T07:33:32;7.13;;;4.15;;
69532;SDS011;56729;52.036;5.332;2022-11-15T07:34:53;8.00;;;4.18;;
69532;SDS011;56729;52.036;5.332;2022-11-15T07:36:13;6.30;;;3.60;;
69532;SDS011;56729;52.036;5.332;2022-11-15T07:37:34;7.90;;;3.57;;
69532;SDS011;56729;52.036;5.332;2022-11-15T07:38:55;6.60;;;3.78;;
69532;SDS011;56729;52.036;5.332;2022-11-15T07:40:15;6.00;;;2.88;;
69532;SDS011;56729;52.036;5.332;2022-11-15T07:41:35;6.03;;;3.58;;
69532;SDS011;56729;52.036;5.332;2022-11-15T07:43:06;4.55;;;3.17;;
69532;SDS011;56729;52.036;5.332;2022-11-15T07:44:27;6.95;;;3.85;;
69532;SDS011;56729;52.036;5.332;2022-11-15T07:45:48;4.20;;;2.83;;
69532;SDS011;56729;52.036;5.332;2022-11-15T07:47:13;6.45;;;4.82;;
69532;SDS011;56729;52.036;5.332;2022-11-15T07:48:34;5.78;;;3.28;;
69532;SDS011;56729;52.036;5.332;2022-11-15T07:50:03;5.32;;;2.60;;
69532;SDS011;56729;52.036;5.332;2022-11-15T07:51:24;7.70;;;3.47;;
69532;SDS011;56729;52.036;5.332;2022-11-15T07:52:45;5.50;;;3.40;;
69532;SDS011;56729;52.036;5.332;2022-11-15T07:54:05;5.57;;;3.63;;
69532;SDS011;56729;52.036;5.332;2022-11-15T07:55:26;5.53;;;3.78;;
69532;SDS011;56729;52.036;5.332;2022-11-15T07:56:50;5.35;;;2.55;;
69532;SDS011;56729;52.036;5.332;2022-11-15T07:58:11;5.50;;;3.38;;
69532;SDS011;56729;52.036;5.332;2022-11-15T07:59:32;4.95;;;2.55;;
69532;SDS011;56729;52.036;5.332;2022-11-15T08:00:54;4.35;;;3.03;;
69532;SDS011;56729;52.036;5.332;2022-11-15T08:02:15;5.05;;;3.63;;
69532;SDS011;56729;52.036;5.332;2022-11-15T08:03:37;7.18;;;2.97;;
69532;SDS011;56729;52.036;5.332;2022-11-15T08:04:58;9.53;;;4.07;;
69532;SDS011;56729;52.036;5.332;2022-11-15T08:06:18;5.40;;;3.78;;
69532;SDS011;56729;52.036;5.332;2022-11-15T08:07:39;7.45;;;3.58;;
69532;SDS011;56729;52.036;5.332;2022-11-15T08:09:00;4.72;;;3.45;;
69532;SDS011;56729;52.036;5.332;2022-11-15T08:10:20;4.32;;;2.58;;
69532;SDS011;56729;52.036;5.332;2022-11-15T08:11:41;6.50;;;3.85;;
69532;SDS011;56729;52.036;5.332;2022-11-15T08:13:06;5.80;;;3.08;;
69532;SDS011;56729;52.036;5.332;2022-11-15T08:14:28;5.30;;;3.75;;
69532;SDS011;56729;52.036;5.332;2022-11-15T08:15:48;10.23;;;3.55;;
69532;SDS011;56729;52.036;5.332;2022-11-15T08:17:16;5.68;;;3.90;;
69532;SDS011;56729;52.036;5.332;2022-11-15T08:18:37;6.27;;;2.33;;
69532;SDS011;56729;52.036;5.332;2022-11-15T08:19:57;5.20;;;3.30;;
69532;SDS011;56729;52.036;5.332;2022-11-15T08:21:18;5.18;;;2.83;;
69532;SDS011;56729;52.036;5.332;2022-11-15T08:22:40;5.35;;;3.15;;
69532;SDS011;56729;52.036;5.332;2022-11-15T08:24:00;5.97;;;2.70;;
69532;SDS011;56729;52.036;5.332;2022-11-15T08:25:21;4.30;;;3.13;;
69532;SDS011;56729;52.036;5.332;2022-11-15T08:26:41;4.18;;;2.97;;
69532;SDS011;56729;52.036;5.332;2022-11-15T08:28:02;5.00;;;3.45;;
69532;SDS011;56729;52.036;5.332;2022-11-15T08:29:24;4.78;;;2.42;;
69532;SDS011;56729;52.036;5.332;2022-11-15T08:30:46;7.93;;;4.18;;
69532;SDS011;56729;52.036;5.332;2022-11-15T08:32:06;4.23;;;2.10;;
69532;SDS011;56729;52.036;5.332;2022-11-15T08:33:27;7.25;;;3.47;;
69532;SDS011;56729;52.036;5.332;2022-11-15T08:34:48;5.68;;;2.70;;
69532;SDS011;56729;52.036;5.332;2022-11-15T08:36:11;3.88;;;2.10;;
69532;SDS011;56729;52.036;5.332;2022-11-15T08:37:34;4.95;;;3.05;;
69532;SDS011;56729;52.036;5.332;2022-11-15T08:38:55;4.90;;;3.28;;
69532;SDS011;56729;52.036;5.332;2022-11-15T08:40:15;5.15;;;3.08;;
69532;SDS011;56729;52.036;5.332;2022-11-15T08:41:37;4.30;;;2.92;;
69532;SDS011;56729;52.036;5.332;2022-11-15T08:42:58;3.95;;;2.20;;
69532;SDS011;56729;52.036;5.332;2022-11-15T08:44:22;5.85;;;2.47;;
69532;SDS011;56729;52.036;5.332;2022-11-15T08:45:44;3.77;;;2.70;;
69532;SDS011;56729;52.036;5.332;2022-11-15T08:47:05;5.15;;;3.28;;